Piarco, Trinidad And Tobago

8:29 AM AST on May 22, 2015 (GMT -0400)
Mount St. Benedict | | Change Station
CLOSE
Current Station
Personal Weather Station
Location: St. Augustine, ST GEORGE
Elevation: 210 ft
Nearby Weather Stations

Elev 210 ft 10.65 °N, 61.40 °W | Updated 6 seconds ago

Partly Cloudy
Partly Cloudy
84.9 °F
Feels Like 90 °F
N
6.7
Wind Variable Wind from ENE
Gusts 9.8 mph

Today
High -- | Low -- °F
--% Chance of Precip.
Yesterday
High -- | Low -- °F
Precip. -- in
5:42 AM 6:21 PM
Waxing Crescent, 21% visible
Pressure 30.01 in
Visibility 3.7 miles
Clouds Few 2000 ft
Heat Index 90 °F
Dew Point 70 °F
Humidity 62%
Rainfall 0.00 in
Snow Depth Not available.
UV 3.0 out of 12
Pollen Not available.
Air Quality Not available.
Flu Activity Not available.
METAR TTPP 221200Z 10012KT 6000 FEW020 30/23 Q1016 NOSIG RMK DU HZ

More Conditions Fewer Conditions

Pressure 30.01 in
Visibility 3.7 miles
Clouds Few 2000 ft
Heat Index 90 °F
Dew Point 70 °F
Humidity 62%
Rainfall 0.00 in
Snow Depth Not available.
UV 3.0 out of 12
Pollen Not available.
Air Quality Not available.
Flu Activity Not available.
METAR TTPP 221200Z 10012KT 6000 FEW020 30/23 Q1016 NOSIG RMK DU HZ

More Conditions Fewer Conditions

10-Day Weather Forecast

Almanac

Astronomy

May. 22, 2015 Rise Set
Actual Time
Civil Twilight
Nautical Twilight
Astronomical Twilight
Moon
Length of Visible Light
Length of Day
Tomorrow will be .
, % of the Moon is Illuminated

Today's Extremes

Country Highs Country Lows

Community

WunderPhotos

Upload Photos

1,823,208 photos uploaded!

WunderBlogs® & News

Nearby

Air Quality

  Air Quality AQ Index Pollutant
Not available.

Snow Depth

Station Depth Elevation

Earthquake Activity

City Distance Mag. Time & Date
Minimum magnitude displayed is 2.5.

Coastal Water Temperatures

Place Temperature

Stations

Nearby Weather Stations

Station Location Temp. Windchill Dew Point Humidity Wind Precip. Elev Updated Type